Time;durP1;ratioP1;P1;durP2;ratioP2;P2;SDS_P1;SDS_P2;PMS_P1;PMS_P2;Temp;Humidity;BMP_temperature;BMP_pressure;BME280_temperature;BME280_humidity;BME280_pressure;Samples;Min_cycle;Max_cycle;Signal;HPM_P1;HPM_P2
2024/02/20 00:02:18;;;;;;;1.65;1.00;;;9.20;99.90;;;;;;4417006;32;20085;-60
2024/02/20 00:04:44;;;;;;;0.50;0.50;;;9.10;99.90;;;;;;4427504;32;20290;-59
2024/02/20 00:07:09;;;;;;;0.75;0.55;;;9.20;99.90;;;;;;4415230;32;21515;-58
2024/02/20 00:09:35;;;;;;;0.40;0.40;;;9.20;99.90;;;;;;4425209;32;20073;-59
2024/02/20 00:12:00;;;;;;;0.40;0.40;;;9.20;99.90;;;;;;4417889;32;20461;-59
2024/02/20 00:14:27;;;;;;;1.15;0.98;;;9.20;99.90;;;;;;4419598;32;20072;-64
2024/02/20 00:16:53;;;;;;;0.40;0.40;;;9.20;99.90;;;;;;4432963;32;20450;-59
2024/02/20 00:19:20;;;;;;;0.40;0.40;;;9.20;99.90;;;;;;4421561;32;20058;-58
2024/02/20 00:21:46;;;;;;;1.75;1.48;;;9.20;99.90;;;;;;4418970;32;20628;-59
2024/02/20 00:24:12;;;;;;;0.98;0.60;;;9.20;99.90;;;;;;4418229;32;20671;-59
2024/02/20 00:26:37;;;;;;;0.60;0.60;;;9.10;99.90;;;;;;4416621;32;20061;-57
2024/02/20 00:29:03;;;;;;;0.65;0.60;;;9.10;99.90;;;;;;4425428;32;20081;-59
2024/02/20 00:31:32;;;;;;;0.50;0.50;;;9.10;99.90;;;;;;4428043;32;20537;-60
2024/02/20 00:33:58;;;;;;;0.30;0.30;;;9.10;99.90;;;;;;4420949;32;20334;-59
2024/02/20 00:36:24;;;;;;;1.60;0.85;;;9.10;99.90;;;;;;4428939;32;20118;-59
2024/02/20 00:38:50;;;;;;;0.52;0.50;;;9.10;99.90;;;;;;4428948;32;20077;-58
2024/02/20 00:41:15;;;;;;;0.60;0.60;;;9.10;99.90;;;;;;4426763;32;20078;-58
2024/02/20 00:43:41;;;;;;;0.47;0.47;;;9.10;99.90;;;;;;4423389;32;20073;-58
2024/02/20 00:46:06;;;;;;;0.40;0.40;;;9.10;99.90;;;;;;4426204;32;20126;-58
2024/02/20 00:48:32;;;;;;;0.65;0.65;;;9.00;99.90;;;;;;4426201;32;20792;-59
2024/02/20 00:50:58;;;;;;;2.12;0.55;;;9.00;99.90;;;;;;4428709;32;20183;-58
2024/02/20 00:53:23;;;;;;;2.65;1.25;;;9.00;99.90;;;;;;4418616;32;20077;-62
2024/02/20 00:55:50;;;;;;;0.50;0.47;;;9.00;99.90;;;;;;4417051;32;20065;-56
2024/02/20 00:58:15;;;;;;;1.05;0.95;;;9.00;99.90;;;;;;4408804;32;20073;-59
2024/02/20 01:00:40;;;;;;;1.00;0.90;;;9.00;99.90;;;;;;4416069;32;20076;-58
2024/02/20 01:03:06;;;;;;;0.32;0.32;;;9.00;99.90;;;;;;4419207;32;20062;-57
2024/02/20 01:05:31;;;;;;;0.30;0.30;;;9.00;99.90;;;;;;4416212;32;20537;-58
2024/02/20 01:07:57;;;;;;;0.73;0.70;;;8.90;99.90;;;;;;4420008;32;20471;-57
2024/02/20 01:10:22;;;;;;;22.02;0.70;;;8.90;99.90;;;;;;4417535;32;20077;-58
2024/02/20 01:12:48;;;;;;;0.30;0.30;;;8.90;99.90;;;;;;4415895;32;20569;-59
2024/02/20 01:15:13;;;;;;;0.85;0.82;;;9.00;99.90;;;;;;4416938;32;20086;-59
2024/02/20 01:17:39;;;;;;;1.00;0.60;;;9.00;99.90;;;;;;4418961;32;20077;-59
2024/02/20 01:20:06;;;;;;;0.43;0.43;;;9.00;99.90;;;;;;4417441;32;20514;-58
2024/02/20 01:22:32;;;;;;;0.40;0.40;;;8.90;99.90;;;;;;4418610;32;20089;-58
2024/02/20 01:24:57;;;;;;;0.70;0.70;;;9.00;99.90;;;;;;4414736;32;20520;-57
2024/02/20 01:27:24;;;;;;;0.30;0.30;;;8.90;99.90;;;;;;4418465;32;20524;-58
2024/02/20 01:29:49;;;;;;;0.30;0.30;;;8.90;99.90;;;;;;4410123;32;20423;-59
2024/02/20 01:32:15;;;;;;;0.65;0.65;;;8.90;99.90;;;;;;4414810;32;20093;-60
2024/02/20 01:34:40;;;;;;;1.77;0.73;;;9.00;99.90;;;;;;4419528;32;20120;-59
2024/02/20 01:37:06;;;;;;;0.50;0.50;;;8.90;99.90;;;;;;4420259;32;20118;-59
2024/02/20 01:39:32;;;;;;;0.30;0.30;;;9.00;99.90;;;;;;4419529;32;20132;-59
2024/02/20 01:41:57;;;;;;;0.40;0.40;;;9.00;99.90;;;;;;4415276;32;20606;-59
2024/02/20 01:44:31;;;;;;;0.30;0.30;;;9.00;99.90;;;;;;4414651;32;20069;-58
2024/02/20 01:46:57;;;;;;;2.12;1.17;;;9.00;99.90;;;;;;4418222;32;20077;-58
2024/02/20 01:49:23;;;;;;;0.43;0.43;;;8.90;99.90;;;;;;4420440;32;20082;-56
2024/02/20 01:51:49;;;;;;;1.12;0.43;;;8.90;99.90;;;;;;4419449;32;21163;-58
2024/02/20 01:54:15;;;;;;;0.82;0.55;;;8.90;99.90;;;;;;4426501;32;20097;-57
2024/02/20 01:56:41;;;;;;;0.68;0.52;;;8.90;99.90;;;;;;4427430;32;20497;-57
2024/02/20 01:59:07;;;;;;;1.35;0.75;;;8.90;99.90;;;;;;4424769;32;20411;-58
2024/02/20 02:01:32;;;;;;;1.87;0.80;;;8.90;99.90;;;;;;4429780;32;20073;-59
2024/02/20 02:03:58;;;;;;;4.07;1.05;;;8.90;99.90;;;;;;4429279;32;20207;-58
2024/02/20 02:06:28;;;;;;;0.60;0.60;;;8.90;99.90;;;;;;4428833;32;20081;-58
2024/02/20 02:08:53;;;;;;;0.52;0.52;;;8.90;99.90;;;;;;4432319;32;20098;-58
2024/02/20 02:11:19;;;;;;;0.65;0.65;;;8.90;99.90;;;;;;4429094;32;20077;-59
2024/02/20 02:13:44;;;;;;;2.95;1.05;;;8.90;99.90;;;;;;4427235;32;20508;-58
2024/02/20 02:16:10;;;;;;;1.00;1.00;;;8.80;99.90;;;;;;4429552;32;20508;-58
2024/02/20 02:18:35;;;;;;;0.47;0.47;;;8.80;99.90;;;;;;4431406;32;20076;-58
2024/02/20 02:21:00;;;;;;;0.60;0.60;;;8.80;99.90;;;;;;4428857;32;20065;-59
2024/02/20 02:23:26;;;;;;;0.57;0.57;;;8.80;99.90;;;;;;4432588;32;20124;-59
2024/02/20 02:25:51;;;;;;;0.57;0.55;;;8.80;99.90;;;;;;4429012;32;20060;-56
2024/02/20 02:28:17;;;;;;;0.68;0.68;;;8.80;99.90;;;;;;4428436;32;20180;-59
2024/02/20 02:30:43;;;;;;;0.40;0.40;;;8.80;99.90;;;;;;4430000;32;20188;-58
2024/02/20 02:33:08;;;;;;;25.23;0.80;;;8.80;99.90;;;;;;4421146;32;20069;-58
2024/02/20 02:35:34;;;;;;;0.30;0.30;;;8.80;99.90;;;;;;4426996;32;20545;-59
2024/02/20 02:38:02;;;;;;;0.90;0.55;;;8.80;99.90;;;;;;4430270;32;20070;-58
2024/02/20 02:40:27;;;;;;;0.30;0.30;;;8.70;99.90;;;;;;4427488;32;20576;-59
2024/02/20 02:42:53;;;;;;;0.37;0.37;;;8.80;99.90;;;;;;4412801;32;20187;-58
2024/02/20 02:45:18;;;;;;;0.30;0.30;;;8.80;99.90;;;;;;4425675;32;20572;-58
2024/02/20 02:47:44;;;;;;;0.40;0.40;;;8.70;99.90;;;;;;4427462;32;20647;-59
2024/02/20 02:50:10;;;;;;;0.65;0.65;;;8.70;99.90;;;;;;4422810;32;20116;-59
2024/02/20 02:52:36;;;;;;;0.50;0.50;;;8.70;99.90;;;;;;4428570;32;20073;-59
2024/02/20 02:55:01;;;;;;;2.33;0.60;;;8.70;99.90;;;;;;4418969;32;21111;-61
2024/02/20 02:57:27;;;;;;;0.30;0.30;;;8.70;99.90;;;;;;4416120;32;20206;-59
2024/02/20 02:59:52;;;;;;;0.60;0.50;;;8.70;99.90;;;;;;4417858;32;20084;-58
2024/02/20 03:02:19;;;;;;;0.85;0.62;;;8.70;99.90;;;;;;4430423;32;20073;-57
2024/02/20 03:04:44;;;;;;;4.00;0.82;;;8.70;99.90;;;;;;4431855;32;20077;-58
2024/02/20 03:07:10;;;;;;;0.70;0.70;;;8.60;99.90;;;;;;4426959;32;20061;-57
2024/02/20 03:09:37;;;;;;;0.40;0.40;;;8.60;99.90;;;;;;4429089;32;20066;-58
2024/02/20 03:12:03;;;;;;;2.92;2.30;;;8.60;99.90;;;;;;4415153;32;20580;-57
2024/02/20 03:14:28;;;;;;;6.32;0.43;;;8.60;99.90;;;;;;4430033;32;20119;-59
2024/02/20 03:16:54;;;;;;;0.30;0.30;;;8.60;99.90;;;;;;4428642;32;20085;-60
2024/02/20 03:19:20;;;;;;;0.40;0.40;;;8.60;99.90;;;;;;4431730;32;21180;-61
2024/02/20 03:21:45;;;;;;;4.18;0.82;;;8.60;99.90;;;;;;4431405;32;21145;-59
2024/02/20 03:24:11;;;;;;;0.52;0.52;;;8.60;99.90;;;;;;4419700;32;20081;-58
2024/02/20 03:26:36;;;;;;;0.30;0.30;;;8.50;99.90;;;;;;4428567;32;20081;-59
2024/02/20 03:29:02;;;;;;;0.37;0.37;;;8.60;99.90;;;;;;4426137;32;20073;-60
2024/02/20 03:31:27;;;;;;;0.45;0.45;;;8.60;99.90;;;;;;4428394;32;20065;-59
2024/02/20 03:33:53;;;;;;;0.40;0.40;;;8.60;99.90;;;;;;4431113;32;20064;-59
2024/02/20 03:36:18;;;;;;;0.50;0.50;;;8.60;99.90;;;;;;4427413;32;20074;-59
2024/02/20 03:38:43;;;;;;;2.05;0.80;;;8.60;99.90;;;;;;4428972;32;20081;-59
2024/02/20 03:41:10;;;;;;;0.30;0.30;;;8.60;99.90;;;;;;4428549;32;20077;-59
2024/02/20 03:43:36;;;;;;;0.37;0.37;;;8.60;99.90;;;;;;4428217;32;20085;-60
2024/02/20 03:46:03;;;;;;;0.37;0.37;;;8.60;99.90;;;;;;4417084;32;20081;-59
2024/02/20 03:48:29;;;;;;;0.20;0.20;;;8.60;99.90;;;;;;4428012;32;20128;-60
2024/02/20 03:50:55;;;;;;;0.32;0.32;;;8.60;99.90;;;;;;4417939;32;20073;-60
2024/02/20 03:53:20;;;;;;;0.50;0.50;;;8.70;99.90;;;;;;4420869;32;20136;-60
2024/02/20 03:55:46;;;;;;;0.50;0.50;;;8.60;99.90;;;;;;4417358;32;20144;-60
2024/02/20 03:58:11;;;;;;;0.20;0.20;;;8.70;99.90;;;;;;4413147;32;20073;-59
2024/02/20 04:00:37;;;;;;;0.30;0.30;;;8.70;99.90;;;;;;4417899;32;20525;-60
2024/02/20 04:03:02;;;;;;;0.40;0.40;;;8.70;99.90;;;;;;4418473;32;20131;-60
2024/02/20 04:05:28;;;;;;;0.70;0.70;;;8.60;99.90;;;;;;4416934;32;20171;-60
2024/02/20 04:07:54;;;;;;;0.40;0.40;;;8.60;99.90;;;;;;4416668;32;20452;-60
2024/02/20 04:10:19;;;;;;;0.20;0.20;;;8.60;99.90;;;;;;4418535;32;20438;-58
2024/02/20 04:12:45;;;;;;;0.30;0.30;;;8.60;99.90;;;;;;4421077;32;20122;-60
2024/02/20 04:15:12;;;;;;;0.40;0.40;;;8.60;99.90;;;;;;4418150;32;20128;-59
2024/02/20 04:17:38;;;;;;;0.80;0.65;;;8.60;99.90;;;;;;4404571;32;20099;-60
2024/02/20 04:20:07;;;;;;;0.35;0.35;;;8.60;99.90;;;;;;4404517;32;20073;-60
2024/02/20 04:22:32;;;;;;;0.40;0.40;;;8.60;99.90;;;;;;4415840;32;20073;-59
2024/02/20 04:24:59;;;;;;;0.30;0.30;;;8.60;99.90;;;;;;4413836;32;20491;-60
2024/02/20 04:27:26;;;;;;;0.50;0.50;;;8.50;99.90;;;;;;4398914;32;20450;-60
2024/02/20 04:29:53;;;;;;;0.62;0.52;;;8.40;99.90;;;;;;4416509;32;20516;-59
2024/02/20 04:32:18;;;;;;;0.37;0.37;;;8.40;99.90;;;;;;4416203;32;20081;-59
2024/02/20 04:34:44;;;;;;;0.30;0.30;;;8.40;99.90;;;;;;4420097;32;20065;-59
2024/02/20 04:37:09;;;;;;;0.40;0.40;;;8.30;99.90;;;;;;4417584;32;20065;-59
2024/02/20 04:39:35;;;;;;;0.20;0.20;;;8.30;99.90;;;;;;4417689;32;20069;-59
2024/02/20 04:42:00;;;;;;;0.30;0.30;;;8.30;99.90;;;;;;4416455;32;20080;-59
2024/02/20 04:44:26;;;;;;;0.50;0.50;;;8.30;99.90;;;;;;4417760;32;20116;-59
2024/02/20 04:46:51;;;;;;;0.40;0.40;;;8.40;99.90;;;;;;4419066;32;20081;-59
2024/02/20 04:49:17;;;;;;;0.30;0.30;;;8.40;99.90;;;;;;4419802;32;20128;-59
2024/02/20 04:51:42;;;;;;;1.20;0.57;;;8.40;99.90;;;;;;4421139;32;20774;-59
2024/02/20 04:54:08;;;;;;;0.30;0.30;;;8.50;99.90;;;;;;4427371;32;20057;-59
2024/02/20 04:56:34;;;;;;;0.30;0.30;;;8.40;99.90;;;;;;4418125;32;20505;-60
2024/02/20 04:58:59;;;;;;;0.45;0.45;;;8.50;99.90;;;;;;4427322;32;20068;-60
2024/02/20 05:01:25;;;;;;;0.30;0.30;;;8.40;99.90;;;;;;4427187;32;20065;-59
2024/02/20 05:03:51;;;;;;;0.30;0.30;;;8.50;99.90;;;;;;4427597;32;20112;-58
2024/02/20 05:06:16;;;;;;;0.30;0.30;;;8.40;99.90;;;;;;4427031;32;20131;-57
2024/02/20 05:08:42;;;;;;;0.20;0.20;;;8.40;99.90;;;;;;4427277;32;20056;-59
2024/02/20 05:11:07;;;;;;;0.50;0.50;;;8.40;99.90;;;;;;4426709;32;20135;-59
2024/02/20 05:13:33;;;;;;;0.25;0.25;;;8.30;99.90;;;;;;4416416;32;20074;-59
2024/02/20 05:15:58;;;;;;;3.92;0.50;;;8.30;99.90;;;;;;4420392;32;20483;-60
2024/02/20 05:18:24;;;;;;;3.83;0.93;;;8.30;99.90;;;;;;4428456;32;20536;-59
2024/02/20 05:20:50;;;;;;;0.30;0.30;;;8.30;99.90;;;;;;4425339;32;20105;-59
2024/02/20 05:23:15;;;;;;;0.40;0.40;;;8.40;99.90;;;;;;4408589;32;20485;-59
2024/02/20 05:25:41;;;;;;;0.30;0.30;;;8.40;99.90;;;;;;4425442;32;21151;-59
2024/02/20 05:28:07;;;;;;;2.20;0.82;;;8.40;99.90;;;;;;4426842;32;20555;-59
2024/02/20 05:30:32;;;;;;;0.55;0.40;;;8.30;99.90;;;;;;4428645;32;20536;-59
2024/02/20 05:32:58;;;;;;;0.57;0.57;;;8.20;99.90;;;;;;4428956;32;20085;-59
2024/02/20 05:35:23;;;;;;;0.30;0.30;;;8.20;99.90;;;;;;4426932;32;20150;-60
2024/02/20 05:37:49;;;;;;;0.55;0.55;;;8.20;99.90;;;;;;4425490;32;20080;-60
2024/02/20 05:40:14;;;;;;;0.20;0.20;;;8.20;99.90;;;;;;4427065;32;20084;-60
2024/02/20 05:42:40;;;;;;;0.60;0.60;;;8.10;99.90;;;;;;4415038;32;20742;-59
2024/02/20 05:45:06;;;;;;;0.20;0.20;;;8.10;99.90;;;;;;4411817;32;20094;-60
2024/02/20 05:47:32;;;;;;;0.25;0.25;;;8.10;99.90;;;;;;4414191;32;20516;-63
2024/02/20 05:49:58;;;;;;;0.40;0.40;;;8.10;99.90;;;;;;4425666;32;20486;-60
2024/02/20 05:52:23;;;;;;;0.20;0.20;;;8.00;99.90;;;;;;4412773;32;20086;-60
2024/02/20 05:54:49;;;;;;;0.25;0.25;;;8.00;99.90;;;;;;4425952;32;20069;-59
2024/02/20 05:57:15;;;;;;;0.30;0.30;;;8.00;99.90;;;;;;4424379;32;20073;-60
2024/02/20 05:59:41;;;;;;;0.30;0.30;;;8.00;99.90;;;;;;4420404;32;20085;-59
2024/02/20 06:02:07;;;;;;;0.30;0.30;;;8.00;99.90;;;;;;4425762;32;20078;-59
2024/02/20 06:04:32;;;;;;;0.30;0.30;;;7.90;99.90;;;;;;4415095;32;20474;-58
2024/02/20 06:06:58;;;;;;;0.30;0.30;;;7.90;99.90;;;;;;4410965;32;20060;-59
2024/02/20 06:09:23;;;;;;;0.30;0.30;;;7.80;99.90;;;;;;4426157;32;20092;-58
2024/02/20 06:11:49;;;;;;;0.20;0.20;;;7.70;99.90;;;;;;4413728;32;20085;-59
2024/02/20 06:14:14;;;;;;;0.30;0.30;;;7.70;99.90;;;;;;4400097;32;20080;-59
2024/02/20 06:16:41;;;;;;;0.40;0.40;;;7.80;99.90;;;;;;4417633;32;20073;-59
2024/02/20 06:19:07;;;;;;;0.30;0.30;;;7.70;99.90;;;;;;4412930;32;20089;-57
2024/02/20 06:21:33;;;;;;;0.30;0.30;;;7.70;99.90;;;;;;4413445;32;20069;-59
2024/02/20 06:23:59;;;;;;;1.65;0.50;;;7.70;99.90;;;;;;4399786;32;20081;-60
2024/02/20 06:26:24;;;;;;;0.30;0.30;;;7.70;99.90;;;;;;4393602;32;22261;-58
2024/02/20 06:28:51;;;;;;;0.40;0.40;;;7.70;99.90;;;;;;4401532;32;20512;-59
2024/02/20 06:31:17;;;;;;;0.30;0.30;;;7.80;99.90;;;;;;4416957;32;20077;-59
2024/02/20 06:33:43;;;;;;;0.30;0.30;;;7.80;99.90;;;;;;4401479;32;21510;-61
2024/02/20 06:36:09;;;;;;;0.30;0.30;;;7.90;99.90;;;;;;4419336;32;20444;-60
2024/02/20 06:38:35;;;;;;;0.30;0.30;;;7.90;99.90;;;;;;4413176;32;20120;-60
2024/02/20 06:41:01;;;;;;;0.50;0.50;;;7.90;99.90;;;;;;4417161;32;20739;-58
2024/02/20 06:43:27;;;;;;;4.18;0.93;;;7.80;99.90;;;;;;4406580;32;20102;-59
2024/02/20 06:45:53;;;;;;;0.32;0.32;;;7.80;99.90;;;;;;4410451;32;20974;-59
2024/02/20 06:48:19;;;;;;;0.20;0.20;;;7.80;99.90;;;;;;4389996;32;20104;-57
2024/02/20 06:50:45;;;;;;;6.72;0.73;;;7.80;99.90;;;;;;4395467;32;20086;-61
2024/02/20 06:53:10;;;;;;;0.30;0.30;;;7.80;99.90;;;;;;4396619;32;22419;-60
2024/02/20 06:55:36;;;;;;;0.40;0.40;;;7.80;99.90;;;;;;4398473;32;20085;-59
2024/02/20 06:58:01;;;;;;;0.30;0.30;;;7.80;99.90;;;;;;4394785;32;20114;-60
2024/02/20 07:00:27;;;;;;;0.32;0.32;;;7.80;99.90;;;;;;4392778;32;20812;-60
2024/02/20 07:02:53;;;;;;;0.22;0.22;;;7.80;99.90;;;;;;4376086;32;20164;-59
2024/02/20 07:05:18;;;;;;;0.40;0.40;;;7.70;99.90;;;;;;4389899;32;20221;-60
2024/02/20 07:07:44;;;;;;;0.40;0.40;;;7.70;99.90;;;;;;4358974;32;20572;-60
2024/02/20 07:10:10;;;;;;;0.30;0.30;;;7.70;99.90;;;;;;4392779;32;20102;-59
2024/02/20 07:12:36;;;;;;;0.35;0.35;;;7.80;99.90;;;;;;4388334;32;20097;-60
2024/02/20 07:15:03;;;;;;;0.40;0.40;;;7.80;99.90;;;;;;4370704;32;20999;-60
2024/02/20 07:17:28;;;;;;;0.30;0.30;;;7.80;99.90;;;;;;4383191;32;20200;-60
2024/02/20 07:19:55;;;;;;;0.20;0.20;;;7.70;99.90;;;;;;4376491;32;20132;-60
2024/02/20 07:22:21;;;;;;;0.40;0.40;;;7.80;99.90;;;;;;4392653;32;20077;-61
2024/02/20 07:24:46;;;;;;;0.30;0.30;;;7.80;99.90;;;;;;4385528;32;20651;-59
2024/02/20 07:27:12;;;;;;;0.30;0.30;;;7.80;99.90;;;;;;4369231;32;20832;-60
2024/02/20 07:29:42;;;;;;;1.95;1.65;;;7.90;99.90;;;;;;4394392;32;20822;-58
2024/02/20 07:32:09;;;;;;;0.30;0.30;;;7.90;99.90;;;;;;4389818;32;20089;-59
2024/02/20 07:34:35;;;;;;;0.40;0.40;;;7.90;99.90;;;;;;4388891;32;20073;-59
2024/02/20 07:37:01;;;;;;;0.30;0.30;;;7.90;99.90;;;;;;4387612;32;21440;-60
2024/02/20 07:39:27;;;;;;;0.30;0.30;;;8.00;99.90;;;;;;4377515;32;21123;-58
2024/02/20 07:41:52;;;;;;;0.32;0.32;;;8.00;99.90;;;;;;4387293;32;20188;-59
2024/02/20 07:44:18;;;;;;;0.30;0.30;;;8.10;99.90;;;;;;4387181;32;20185;-58
2024/02/20 07:46:43;;;;;;;0.30;0.30;;;8.10;99.90;;;;;;4384485;32;20101;-57
2024/02/20 07:49:09;;;;;;;0.40;0.40;;;8.10;99.90;;;;;;4387462;32;20093;-60
2024/02/20 07:51:34;;;;;;;0.30;0.30;;;8.10;99.90;;;;;;4384963;32;20081;-59
2024/02/20 07:54:00;;;;;;;0.30;0.30;;;8.20;99.90;;;;;;4391855;32;20220;-59
2024/02/20 07:56:28;;;;;;;0.40;0.40;;;8.20;99.90;;;;;;4384414;32;20089;-58
2024/02/20 07:58:54;;;;;;;0.30;0.30;;;8.20;99.90;;;;;;4389146;32;20602;-59
2024/02/20 08:01:20;;;;;;;2.17;0.80;;;8.20;99.90;;;;;;4365819;32;20085;-59
2024/02/20 08:03:48;;;;;;;1.25;0.52;;;8.30;99.90;;;;;;4391271;32;20818;-59
2024/02/20 08:06:14;;;;;;;0.30;0.30;;;8.30;99.90;;;;;;4373596;32;20667;-60
2024/02/20 08:08:41;;;;;;;0.20;0.20;;;8.30;99.90;;;;;;4387948;32;21674;-60
2024/02/20 08:11:07;;;;;;;0.30;0.30;;;8.30;99.90;;;;;;4368837;32;20500;-60
2024/02/20 08:13:33;;;;;;;0.65;0.60;;;8.30;99.90;;;;;;4362762;32;21484;-60
2024/02/20 08:15:58;;;;;;;0.60;0.50;;;8.40;99.90;;;;;;4359339;32;20324;-60
2024/02/20 08:18:24;;;;;;;0.40;0.40;;;8.40;99.90;;;;;;4382447;32;20183;-60
2024/02/20 08:20:50;;;;;;;0.30;0.30;;;8.30;99.90;;;;;;4367187;32;20109;-60
2024/02/20 08:23:15;;;;;;;0.45;0.45;;;8.30;99.90;;;;;;4392736;32;20542;-60
2024/02/20 08:25:41;;;;;;;0.32;0.32;;;8.30;99.90;;;;;;4385832;32;20089;-60
2024/02/20 08:28:06;;;;;;;0.30;0.30;;;8.40;99.90;;;;;;4382237;32;20769;-60
2024/02/20 08:30:32;;;;;;;0.30;0.30;;;8.40;99.90;;;;;;4364164;32;21800;-60
2024/02/20 08:32:58;;;;;;;0.30;0.30;;;8.40;99.90;;;;;;4367532;32;20712;-61
2024/02/20 08:35:23;;;;;;;0.40;0.40;;;8.40;99.90;;;;;;4385113;32;20101;-60
2024/02/20 08:37:49;;;;;;;0.40;0.40;;;8.40;99.90;;;;;;4381302;32;20533;-58
2024/02/20 08:40:15;;;;;;;0.30;0.30;;;8.40;99.90;;;;;;4384820;32;20081;-60
2024/02/20 08:42:41;;;;;;;0.30;0.30;;;8.40;99.90;;;;;;4396009;32;20456;-60
2024/02/20 08:45:08;;;;;;;0.60;0.60;;;8.30;99.90;;;;;;4396030;32;21892;-60
2024/02/20 08:47:34;;;;;;;0.60;0.60;;;8.30;99.90;;;;;;4363014;32;20718;-60
2024/02/20 08:49:59;;;;;;;0.28;0.28;;;8.30;99.90;;;;;;4365385;32;20177;-60
2024/02/20 08:52:25;;;;;;;0.50;0.50;;;8.20;99.90;;;;;;4374166;32;20634;-59
2024/02/20 08:54:50;;;;;;;0.30;0.30;;;8.20;99.90;;;;;;4376919;32;20089;-60
2024/02/20 08:57:16;;;;;;;1.45;0.85;;;8.20;99.90;;;;;;4375083;32;20556;-60
2024/02/20 08:59:41;;;;;;;0.37;0.37;;;8.10;99.90;;;;;;4385313;32;20152;-60
2024/02/20 09:02:07;;;;;;;8.77;1.77;;;8.20;99.90;;;;;;4376766;32;20093;-61
2024/02/20 09:04:32;;;;;;;1.67;0.77;;;8.30;99.90;;;;;;4385700;32;20309;-60
2024/02/20 09:06:58;;;;;;;1.15;1.05;;;8.30;99.90;;;;;;4367356;32;21083;-60
2024/02/20 09:09:24;;;;;;;0.70;0.70;;;8.30;99.90;;;;;;4379797;32;20476;-61
2024/02/20 09:11:50;;;;;;;5.45;1.30;;;8.30;99.90;;;;;;4379082;32;20085;-61
2024/02/20 09:14:16;;;;;;;1.48;0.50;;;8.40;99.90;;;;;;4384553;32;20147;-61
2024/02/20 09:16:43;;;;;;;0.70;0.68;;;8.50;99.90;;;;;;4373270;32;20073;-59
2024/02/20 09:19:09;;;;;;;0.30;0.30;;;8.50;99.90;;;;;;4361298;32;20220;-61
2024/02/20 09:21:34;;;;;;;0.35;0.35;;;8.50;99.90;;;;;;4384359;32;20206;-58
2024/02/20 09:24:00;;;;;;;0.47;0.47;;;8.50;99.90;;;;;;4382802;32;20957;-59
2024/02/20 09:26:26;;;;;;;0.40;0.40;;;8.40;99.90;;;;;;4385139;32;20109;-57
2024/02/20 09:28:52;;;;;;;1.00;0.90;;;8.40;99.90;;;;;;4361562;32;20568;-59
2024/02/20 09:31:18;;;;;;;0.40;0.40;;;8.40;99.90;;;;;;4375422;32;20176;-60
2024/02/20 09:33:43;;;;;;;2.05;0.73;;;8.50;99.90;;;;;;4373798;32;20088;-59
2024/02/20 09:36:09;;;;;;;0.60;0.60;;;8.60;99.90;;;;;;4355506;32;20101;-59
2024/02/20 09:38:35;;;;;;;1.35;1.17;;;8.60;99.90;;;;;;4357011;32;20203;-58
2024/02/20 09:41:03;;;;;;;0.62;0.62;;;8.50;99.90;;;;;;4377092;32;20169;-59
2024/02/20 09:43:29;;;;;;;1.42;1.23;;;8.50;99.90;;;;;;4373773;32;20101;-59
2024/02/20 09:45:56;;;;;;;0.60;0.60;;;8.60;99.90;;;;;;4375270;32;20100;-58
2024/02/20 09:48:23;;;;;;;0.30;0.30;;;8.60;99.90;;;;;;4348097;32;20125;-59
2024/02/20 09:50:51;;;;;;;0.90;0.90;;;8.70;99.90;;;;;;4366319;32;20212;-60
2024/02/20 09:53:19;;;;;;;0.40;0.35;;;8.70;99.90;;;;;;4371609;32;20089;-59
2024/02/20 09:55:45;;;;;;;2.67;1.08;;;8.70;99.90;;;;;;4375282;32;20604;-55
2024/02/20 09:58:10;;;;;;;1.27;0.65;;;8.70;99.90;;;;;;4379816;32;20105;-56
2024/02/20 10:00:36;;;;;;;0.30;0.30;;;8.60;99.90;;;;;;4384769;32;20065;-58
2024/02/20 10:03:03;;;;;;;0.30;0.30;;;8.60;99.90;;;;;;4385731;32;20085;-57
2024/02/20 10:05:29;;;;;;;1.65;1.40;;;8.60;99.90;;;;;;4351256;32;20084;-59
2024/02/20 10:08:00;;;;;;;1.00;0.82;;;8.60;99.90;;;;;;4359581;32;20549;-57
2024/02/20 10:10:26;;;;;;;0.30;0.30;;;8.60;99.90;;;;;;4363107;32;20178;-57
2024/02/20 10:13:00;;;;;;;0.30;0.30;;;8.60;99.90;;;;;;4354841;32;20533;-58
2024/02/20 10:15:26;;;;;;;0.65;0.65;;;8.50;99.90;;;;;;4361472;32;20105;-59
2024/02/20 10:18:07;;;;;;;9.32;2.12;;;8.50;99.90;;;;;;4385378;32;21314;-58
2024/02/20 10:20:33;;;;;;;2.47;0.52;;;8.50;99.90;;;;;;4381164;32;20950;-58
2024/02/20 10:23:04;;;;;;;1.45;0.93;;;8.50;99.90;;;;;;4383026;32;20983;-56
2024/02/20 10:25:30;;;;;;;0.30;0.30;;;8.70;99.90;;;;;;4371057;32;21893;-57
2024/02/20 10:27:56;;;;;;;0.47;0.47;;;8.70;99.90;;;;;;4373787;32;20177;-58
2024/02/20 10:30:21;;;;;;;0.25;0.25;;;8.80;99.90;;;;;;4386488;32;20136;-63
2024/02/20 10:32:47;;;;;;;9.38;1.50;;;8.90;99.90;;;;;;4374994;32;20089;-58
2024/02/20 10:35:12;;;;;;;5.35;2.03;;;8.90;99.90;;;;;;4378110;32;20330;-58
2024/02/20 10:37:38;;;;;;;0.68;0.68;;;9.00;99.90;;;;;;4380480;32;20081;-57
2024/02/20 10:40:06;;;;;;;0.52;0.52;;;9.10;99.90;;;;;;4384826;32;20113;-57
2024/02/20 10:42:35;;;;;;;0.62;0.52;;;9.10;99.90;;;;;;4376009;32;20188;-58
2024/02/20 10:45:07;;;;;;;0.68;0.50;;;9.00;99.90;;;;;;4376401;32;20431;-56
2024/02/20 10:47:42;;;;;;;0.88;0.88;;;8.90;99.90;;;;;;4382802;32;20154;-59
2024/02/20 10:50:08;;;;;;;0.65;0.65;;;8.90;99.90;;;;;;4382804;32;20133;-57
2024/02/20 10:52:36;;;;;;;2.47;1.05;;;8.90;99.90;;;;;;4361528;32;20111;-58
2024/02/20 10:55:07;;;;;;;0.70;0.70;;;9.00;99.90;;;;;;4379993;32;20627;-58
2024/02/20 10:57:34;;;;;;;0.73;0.73;;;9.00;99.90;;;;;;4365139;32;20093;-58
2024/02/20 11:00:03;;;;;;;0.30;0.30;;;9.00;99.90;;;;;;4390866;32;20585;-59
2024/02/20 11:02:31;;;;;;;0.50;0.50;;;9.00;99.90;;;;;;4368902;32;20539;-58
2024/02/20 11:04:56;;;;;;;0.30;0.30;;;9.10;99.90;;;;;;4391694;32;20125;-61
2024/02/20 11:07:22;;;;;;;3.92;0.90;;;9.20;99.90;;;;;;4384428;32;20089;-59
2024/02/20 11:10:09;;;;;;;4.62;0.68;;;9.20;99.90;;;;;;4384812;32;20093;-57
2024/02/20 11:12:36;;;;;;;8.88;1.33;;;9.10;99.90;;;;;;4365643;32;20089;-56
2024/02/20 11:15:07;;;;;;;3.60;2.25;;;9.20;99.90;;;;;;4376715;32;20765;-58
2024/02/20 11:17:34;;;;;;;3.25;0.98;;;9.20;99.90;;;;;;4381073;32;20638;-58
2024/02/20 11:20:18;;;;;;;0.40;0.40;;;9.20;99.90;;;;;;4384794;32;20816;-59
2024/02/20 11:22:44;;;;;;;0.60;0.60;;;9.30;99.90;;;;;;4399533;32;20069;-59
2024/02/20 11:25:14;;;;;;;0.75;0.35;;;9.40;99.90;;;;;;4389925;32;20199;-58
2024/02/20 11:27:43;;;;;;;0.40;0.40;;;9.40;99.90;;;;;;4373577;32;20240;-58
2024/02/20 11:30:13;;;;;;;1.45;0.45;;;9.30;99.90;;;;;;4392706;32;20844;-58
2024/02/20 11:32:38;;;;;;;16.63;1.37;;;9.30;99.90;;;;;;4405423;32;20069;-59
2024/02/20 11:35:17;;;;;;;3.25;0.75;;;9.30;99.90;;;;;;4371910;32;21040;-58
2024/02/20 11:37:52;;;;;;;0.30;0.30;;;9.20;99.90;;;;;;4398897;32;20157;-57
2024/02/20 11:40:25;;;;;;;0.65;0.50;;;9.20;99.90;;;;;;4383701;32;21380;-58
2024/02/20 11:42:54;;;;;;;1.55;0.85;;;9.20;99.90;;;;;;4388075;32;20656;-56
2024/02/20 11:45:20;;;;;;;0.60;0.60;;;9.30;99.90;;;;;;4390014;32;20085;-61
2024/02/20 11:47:59;;;;;;;0.43;0.43;;;9.30;99.90;;;;;;4392104;32;20139;-60
2024/02/20 11:50:28;;;;;;;0.37;0.37;;;9.40;99.90;;;;;;4386671;32;21010;-57
2024/02/20 11:52:58;;;;;;;1.10;1.10;;;9.40;99.90;;;;;;4378493;32;125804;-59
2024/02/20 11:55:24;;;;;;;1.12;1.08;;;9.40;99.90;;;;;;4355713;32;20770;-57
2024/02/20 11:57:50;;;;;;;0.32;0.32;;;9.30;99.90;;;;;;4381553;32;20280;-58
2024/02/20 12:00:16;;;;;;;0.60;0.60;;;9.30;99.90;;;;;;4388749;32;20476;-59
2024/02/20 12:02:41;;;;;;;0.40;0.40;;;9.40;99.90;;;;;;4391817;32;20410;-57
2024/02/20 12:05:08;;;;;;;0.35;0.35;;;9.40;99.90;;;;;;4390737;32;20826;-59
2024/02/20 12:07:34;;;;;;;0.40;0.40;;;9.50;99.90;;;;;;4382799;32;20266;-59
2024/02/20 12:10:00;;;;;;;6.53;1.12;;;9.50;99.90;;;;;;4379027;32;20955;-59
2024/02/20 12:12:30;;;;;;;0.98;0.57;;;9.40;99.90;;;;;;4364430;32;20235;-59
2024/02/20 12:14:58;;;;;;;1.90;1.23;;;9.40;99.90;;;;;;4376898;32;20240;-57
2024/02/20 12:17:27;;;;;;;0.60;0.60;;;9.40;99.90;;;;;;4377858;32;20876;-56
2024/02/20 12:20:04;;;;;;;1.00;0.82;;;9.40;99.90;;;;;;4385801;32;20471;-58
2024/02/20 12:22:29;;;;;;;10.02;0.75;;;9.50;99.90;;;;;;4387882;32;20134;-57
2024/02/20 12:25:12;;;;;;;5.97;1.02;;;9.50;99.90;;;;;;4393872;32;20825;-59
2024/02/20 12:27:39;;;;;;;11.60;1.15;;;9.40;99.90;;;;;;4391293;32;20093;-58
2024/02/20 12:30:06;;;;;;;0.47;0.47;;;9.40;99.90;;;;;;4366141;32;20081;-58
2024/02/20 12:32:32;;;;;;;1.02;0.95;;;9.40;99.90;;;;;;4354629;32;21007;-58
2024/02/20 12:34:58;;;;;;;0.52;0.52;;;9.30;99.90;;;;;;4364163;32;20204;-55
2024/02/20 12:37:25;;;;;;;2.65;1.02;;;9.20;99.90;;;;;;4394408;32;20563;-58
2024/02/20 12:39:51;;;;;;;0.30;0.30;;;9.20;99.90;;;;;;4382522;32;20081;-58
2024/02/20 12:42:17;;;;;;;7.75;2.53;;;9.20;99.90;;;;;;4370060;32;20648;-57
2024/02/20 12:44:44;;;;;;;1.15;0.80;;;9.20;99.90;;;;;;4379873;32;20591;-58
2024/02/20 12:47:10;;;;;;;0.70;0.55;;;9.20;99.90;;;;;;4356104;32;20147;-58
2024/02/20 12:49:36;;;;;;;2.85;1.87;;;9.30;99.90;;;;;;4379515;32;20077;-58
2024/02/20 12:52:02;;;;;;;1.52;1.42;;;9.40;99.90;;;;;;4380125;32;20125;-58
2024/02/20 12:54:27;;;;;;;2.75;2.12;;;9.40;99.90;;;;;;4384025;32;20073;-57